KBUF/BUF METAR and TAF weather

Enter ICAO airport designator
Station Type Date Time Source
KBUF METAR 2019/12/11 14:54 UTC NOAA

KBUF 111454Z 21022G28KT 10SM R23/2800VP6000FT -SN FEW009 FEW016 BKN026 M04/M09 A3020 RMK AO2 PK WND 21029/1440 SLP239 VIS LWR IN BLSN W-N-NE PCPN VRY LGT DRSN P0000 60012 T10391089 50003


Station Type Date Time Source
KBUF Decoded METAR 2019/12/11 14:54 UTC NOAA

GREATER BUFFALO INTERNATIONAL AIRPORT , NY, United States (KBUF) 42-56N 078-44W 225M
Dec 11, 2019 - 09:54 AM EST / 2019.12.11 1454 UTC
Wind: from the SSW (210 degrees) at 25 MPH (22 KT) gusting to 32 MPH (28 KT):0
Visibility: 10 mile(s):0
Sky conditions: mostly cloudy
Weather: light snow
Precipitation last hour: A trace
Temperature: 25.0 F (-3.9 C)
Windchill: 8 F (-13 C):1
Dew Point: 16.0 F (-8.9 C)
Relative Humidity: 68%
Pressure (altimeter): 30.2 in. Hg (1022 hPa)
Pressure tendency: 0.01 inches (0.3 hPa) higher than three hours ago
ob: KBUF 111454Z 21022G28KT 10SM R23/2800VP6000FT -SN FEW009 FEW016 BKN026 M04/M09 A3020 RMK AO2 PK WND 21029/1440 SLP239 VIS LWR IN BLSN W-N-NE PCPN VRY LGT DRSN P0000 60012 T10391089 50003
cycle: 15

Station Type Date Time Source
KBUF TAF 2019/12/11 14:22 UTC NOAA

TAF
AMD KBUF 111420Z 1114/1212 23012KT P6SM VCSH BKN025
FM111500 23016G24KT P6SM VCSH BKN040
FM111800 24025G35KT 1/2SM SN BLSN OVC012
TEMPO 1118/1120 1/4SM +SN VV006
FM112000 26020G30KT 6SM BLSN BKN040
FM112300 27014G22KT P6SM SCT040
FM120600 27008KT P6SM SCT040

Example: see airport list